Contact Us:
Email: info@sawbill.com
Phone: (218)663-7150
Fax: (218)663-7980
Mail: 4620 Sawbill Trail
Box 2129
Tofte, MN 55615


Powered by
Movable Type 3.15
 
Sawbill Weather History Archives: March 2003
Current Sawbill Weather History | « February 2003 | April 2003 »


Date

High
Temperature

Low
Temperature

Barometric
Pressure

Relative
Humidity 7AM

9 AM
Temperature

Moisture

Snow

03/31/03 35 21 29.63 82% 34 0  
03/30/03 37 21 29.95 75% 21 .15" 3"
03/29/03 40 19 30.13 68% 26 Trace  
03/28/03 32 18 30.02 59% 19 .35" 4"
03/27/03 42 22 29.81 81% 22 .2" 2.5"
03/25/03 42 26 29.93 72% 26 0  
03/24/03 56 34 29.76 68% 34 0  
03/23/03 54 34 29.55 87% 38 0  
03/23/03 42 33 29.74 88% 34 0  
03/21/03 36 33 29.82 84% 35 .41"  
03/20/03 37 33 29.59 85% 34 .01" Trace
03/19/03 52 23 29.75 57% 36 0  
03/18/03 45 23 30.08 69% 23 0  
03/17/03 55 34 29.84 82% 35 0  
03/16/03 54 31 29.96 59% 32 0  
03/15/03 51 26 29.63 82% 34 0  
03/14/03 51 26 29.81 80% 27 0  
03/13/03 34 -9 29.88 77% 26 0  
03/12/03 32 -10 30.20 52% -9 0  
03/11/03 25 -1 29.90 58% -1 .05" 1.5"
03/10/03 27 -7 29.62 63% 9 0  
03/09/03 9 -14 29.98 57% -7 0  
03/08/03 14 -12 29.85 50% -11 0  
03/07/03 26 -6 30.00 42% -6 0 Trace
03/06/03 24 -4 29.78 68% 12 .08" 3"
03/05/03 20 -14 29.80 59% -4 0  
03/04/03 18 -18 29.89 49% -12 0  
03/03/03 11 -18 29.73 60% -4 .03" 1"
03/02/03 9 -22 29.76 58% 1 0  
03/01/03 36 -16 30.04 51% -16 .1" 1"
 


Home I Trip Planning I Rentals and Outfitting I Reservations I Campgrounds I Sawbill Store I Sawbill News I Contact

© 1997 - 2017, Sawbill Canoe Outfitters, Inc. I Privacy Policy